sensor_id;sensor_type;location;lat;lon;timestamp;P1;durP1;ratioP1;P2;durP2;ratioP2
70303;SDS011;57712;48.752;11.348;2023-08-17T00:02:12;8.57;;;5.57;;
70303;SDS011;57712;48.752;11.348;2023-08-17T00:04:39;10.73;;;6.10;;
70303;SDS011;57712;48.752;11.348;2023-08-17T00:07:06;9.20;;;6.28;;
70303;SDS011;57712;48.752;11.348;2023-08-17T00:09:33;10.77;;;5.77;;
70303;SDS011;57712;48.752;11.348;2023-08-17T00:12:00;9.52;;;5.53;;
70303;SDS011;57712;48.752;11.348;2023-08-17T00:14:26;10.18;;;5.40;;
70303;SDS011;57712;48.752;11.348;2023-08-17T00:16:53;10.00;;;5.88;;
70303;SDS011;57712;48.752;11.348;2023-08-17T00:19:19;12.25;;;5.50;;
70303;SDS011;57712;48.752;11.348;2023-08-17T00:21:46;8.57;;;5.43;;
70303;SDS011;57712;48.752;11.348;2023-08-17T00:24:13;9.30;;;5.88;;
70303;SDS011;57712;48.752;11.348;2023-08-17T00:26:39;8.85;;;6.40;;
70303;SDS011;57712;48.752;11.348;2023-08-17T00:29:06;8.98;;;5.68;;
70303;SDS011;57712;48.752;11.348;2023-08-17T00:31:32;9.30;;;5.57;;
70303;SDS011;57712;48.752;11.348;2023-08-17T00:33:59;7.10;;;5.07;;
70303;SDS011;57712;48.752;11.348;2023-08-17T00:36:26;9.00;;;6.13;;
70303;SDS011;57712;48.752;11.348;2023-08-17T00:38:52;11.15;;;6.43;;
70303;SDS011;57712;48.752;11.348;2023-08-17T00:41:19;10.73;;;6.40;;
70303;SDS011;57712;48.752;11.348;2023-08-17T00:43:46;9.88;;;6.78;;
70303;SDS011;57712;48.752;11.348;2023-08-17T00:46:12;9.03;;;6.40;;
70303;SDS011;57712;48.752;11.348;2023-08-17T00:48:40;9.65;;;6.00;;
70303;SDS011;57712;48.752;11.348;2023-08-17T00:51:07;9.10;;;5.88;;
70303;SDS011;57712;48.752;11.348;2023-08-17T00:53:34;8.55;;;6.47;;
70303;SDS011;57712;48.752;11.348;2023-08-17T00:56:01;10.88;;;5.28;;
70303;SDS011;57712;48.752;11.348;2023-08-17T00:58:29;7.80;;;5.63;;
70303;SDS011;57712;48.752;11.348;2023-08-17T01:00:56;9.25;;;6.03;;
70303;SDS011;57712;48.752;11.348;2023-08-17T01:03:23;8.77;;;6.30;;
70303;SDS011;57712;48.752;11.348;2023-08-17T01:05:51;12.95;;;7.05;;
70303;SDS011;57712;48.752;11.348;2023-08-17T01:08:17;9.05;;;5.82;;
70303;SDS011;57712;48.752;11.348;2023-08-17T01:10:49;8.73;;;5.50;;
70303;SDS011;57712;48.752;11.348;2023-08-17T01:13:24;10.80;;;6.90;;
70303;SDS011;57712;48.752;11.348;2023-08-17T01:15:58;11.27;;;6.65;;
70303;SDS011;57712;48.752;11.348;2023-08-17T01:18:33;9.85;;;6.20;;
70303;SDS011;57712;48.752;11.348;2023-08-17T01:21:03;9.43;;;6.53;;
70303;SDS011;57712;48.752;11.348;2023-08-17T01:23:33;9.53;;;6.30;;
70303;SDS011;57712;48.752;11.348;2023-08-17T01:26:00;10.85;;;6.10;;
70303;SDS011;57712;48.752;11.348;2023-08-17T01:28:30;8.95;;;6.80;;
70303;SDS011;57712;48.752;11.348;2023-08-17T01:30:58;9.55;;;6.30;;
70303;SDS011;57712;48.752;11.348;2023-08-17T01:36:25;8.87;;;6.20;;
70303;SDS011;57712;48.752;11.348;2023-08-17T01:38:56;8.52;;;6.38;;
70303;SDS011;57712;48.752;11.348;2023-08-17T01:41:23;9.52;;;6.65;;
70303;SDS011;57712;48.752;11.348;2023-08-17T01:43:52;9.27;;;6.38;;
70303;SDS011;57712;48.752;11.348;2023-08-17T01:46:20;11.85;;;6.45;;
70303;SDS011;57712;48.752;11.348;2023-08-17T01:48:47;10.10;;;6.77;;
70303;SDS011;57712;48.752;11.348;2023-08-17T01:51:17;9.68;;;6.60;;
70303;SDS011;57712;48.752;11.348;2023-08-17T01:53:46;8.85;;;6.80;;
70303;SDS011;57712;48.752;11.348;2023-08-17T01:56:13;11.20;;;6.28;;
70303;SDS011;57712;48.752;11.348;2023-08-17T01:58:40;10.27;;;6.60;;
70303;SDS011;57712;48.752;11.348;2023-08-17T02:01:06;9.53;;;6.33;;
70303;SDS011;57712;48.752;11.348;2023-08-17T02:03:33;11.45;;;6.97;;
70303;SDS011;57712;48.752;11.348;2023-08-17T02:06:00;11.57;;;7.22;;
70303;SDS011;57712;48.752;11.348;2023-08-17T02:08:27;9.52;;;7.07;;
70303;SDS011;57712;48.752;11.348;2023-08-17T02:10:53;11.05;;;7.07;;
70303;SDS011;57712;48.752;11.348;2023-08-17T02:13:20;9.23;;;6.37;;
70303;SDS011;57712;48.752;11.348;2023-08-17T02:15:47;8.80;;;6.10;;
70303;SDS011;57712;48.752;11.348;2023-08-17T02:18:13;9.10;;;6.72;;
70303;SDS011;57712;48.752;11.348;2023-08-17T02:20:40;10.15;;;6.00;;
70303;SDS011;57712;48.752;11.348;2023-08-17T02:23:06;9.23;;;7.03;;
70303;SDS011;57712;48.752;11.348;2023-08-17T02:25:33;10.83;;;7.43;;
70303;SDS011;57712;48.752;11.348;2023-08-17T02:28:03;9.95;;;6.70;;
70303;SDS011;57712;48.752;11.348;2023-08-17T02:30:30;9.88;;;6.47;;
70303;SDS011;57712;48.752;11.348;2023-08-17T02:32:56;10.45;;;6.78;;
70303;SDS011;57712;48.752;11.348;2023-08-17T02:35:24;9.10;;;6.63;;
70303;SDS011;57712;48.752;11.348;2023-08-17T02:37:50;8.63;;;6.50;;
70303;SDS011;57712;48.752;11.348;2023-08-17T02:40:17;10.95;;;7.30;;
70303;SDS011;57712;48.752;11.348;2023-08-17T02:42:44;10.52;;;6.45;;
70303;SDS011;57712;48.752;11.348;2023-08-17T02:45:10;8.82;;;6.32;;
70303;SDS011;57712;48.752;11.348;2023-08-17T02:47:37;10.02;;;6.70;;
70303;SDS011;57712;48.752;11.348;2023-08-17T02:50:05;8.90;;;6.50;;
70303;SDS011;57712;48.752;11.348;2023-08-17T02:52:32;9.88;;;7.53;;
70303;SDS011;57712;48.752;11.348;2023-08-17T02:54:58;11.35;;;7.75;;
70303;SDS011;57712;48.752;11.348;2023-08-17T02:57:25;9.77;;;7.15;;
70303;SDS011;57712;48.752;11.348;2023-08-17T02:59:52;9.52;;;6.90;;
70303;SDS011;57712;48.752;11.348;2023-08-17T03:02:19;10.17;;;7.63;;
70303;SDS011;57712;48.752;11.348;2023-08-17T03:04:45;9.48;;;7.13;;
70303;SDS011;57712;48.752;11.348;2023-08-17T03:07:12;11.02;;;6.35;;
70303;SDS011;57712;48.752;11.348;2023-08-17T03:09:41;10.38;;;7.00;;
70303;SDS011;57712;48.752;11.348;2023-08-17T03:12:07;10.05;;;6.63;;
70303;SDS011;57712;48.752;11.348;2023-08-17T03:14:34;9.97;;;6.63;;
70303;SDS011;57712;48.752;11.348;2023-08-17T03:17:00;10.73;;;7.35;;
70303;SDS011;57712;48.752;11.348;2023-08-17T03:19:27;9.70;;;6.90;;
70303;SDS011;57712;48.752;11.348;2023-08-17T03:21:53;11.35;;;6.80;;
70303;SDS011;57712;48.752;11.348;2023-08-17T03:24:20;9.55;;;7.50;;
70303;SDS011;57712;48.752;11.348;2023-08-17T03:26:47;9.97;;;7.47;;
70303;SDS011;57712;48.752;11.348;2023-08-17T03:29:13;10.35;;;6.85;;
70303;SDS011;57712;48.752;11.348;2023-08-17T03:31:40;9.85;;;7.03;;
70303;SDS011;57712;48.752;11.348;2023-08-17T03:34:06;12.18;;;7.10;;
70303;SDS011;57712;48.752;11.348;2023-08-17T03:36:33;10.60;;;6.63;;
70303;SDS011;57712;48.752;11.348;2023-08-17T03:39:00;9.80;;;7.37;;
70303;SDS011;57712;48.752;11.348;2023-08-17T03:41:27;10.52;;;7.05;;
70303;SDS011;57712;48.752;11.348;2023-08-17T03:43:53;9.65;;;7.50;;
70303;SDS011;57712;48.752;11.348;2023-08-17T03:46:21;17.35;;;8.80;;
70303;SDS011;57712;48.752;11.348;2023-08-17T03:48:47;9.93;;;8.55;;
70303;SDS011;57712;48.752;11.348;2023-08-17T03:51:14;10.63;;;8.30;;
70303;SDS011;57712;48.752;11.348;2023-08-17T03:53:41;11.25;;;8.68;;
70303;SDS011;57712;48.752;11.348;2023-08-17T03:56:07;11.18;;;9.18;;
70303;SDS011;57712;48.752;11.348;2023-08-17T03:58:34;12.55;;;8.77;;
70303;SDS011;57712;48.752;11.348;2023-08-17T04:01:01;12.43;;;8.32;;
70303;SDS011;57712;48.752;11.348;2023-08-17T04:03:29;10.03;;;7.93;;
70303;SDS011;57712;48.752;11.348;2023-08-17T04:05:56;11.73;;;7.88;;
70303;SDS011;57712;48.752;11.348;2023-08-17T04:08:22;9.90;;;7.88;;
70303;SDS011;57712;48.752;11.348;2023-08-17T04:10:49;10.13;;;7.03;;
70303;SDS011;57712;48.752;11.348;2023-08-17T04:13:16;10.60;;;8.07;;
70303;SDS011;57712;48.752;11.348;2023-08-17T04:15:42;12.50;;;8.30;;
70303;SDS011;57712;48.752;11.348;2023-08-17T04:18:10;13.52;;;7.70;;
70303;SDS011;57712;48.752;11.348;2023-08-17T04:20:36;12.63;;;8.82;;
70303;SDS011;57712;48.752;11.348;2023-08-17T04:23:04;11.73;;;8.60;;
70303;SDS011;57712;48.752;11.348;2023-08-17T04:25:30;14.05;;;9.40;;
70303;SDS011;57712;48.752;11.348;2023-08-17T04:27:57;11.53;;;8.17;;
70303;SDS011;57712;48.752;11.348;2023-08-17T04:30:23;12.45;;;7.82;;
70303;SDS011;57712;48.752;11.348;2023-08-17T04:32:51;13.43;;;8.90;;
70303;SDS011;57712;48.752;11.348;2023-08-17T04:35:19;12.63;;;8.13;;
70303;SDS011;57712;48.752;11.348;2023-08-17T04:37:47;12.32;;;8.38;;
70303;SDS011;57712;48.752;11.348;2023-08-17T04:40:14;10.13;;;7.53;;
70303;SDS011;57712;48.752;11.348;2023-08-17T04:42:41;9.80;;;7.35;;
70303;SDS011;57712;48.752;11.348;2023-08-17T04:45:10;13.10;;;8.38;;
70303;SDS011;57712;48.752;11.348;2023-08-17T04:47:37;11.63;;;8.20;;
70303;SDS011;57712;48.752;11.348;2023-08-17T04:50:05;13.68;;;8.05;;
70303;SDS011;57712;48.752;11.348;2023-08-17T04:52:32;10.87;;;7.47;;
70303;SDS011;57712;48.752;11.348;2023-08-17T04:54:59;11.50;;;7.60;;
70303;SDS011;57712;48.752;11.348;2023-08-17T04:57:25;10.15;;;7.78;;
70303;SDS011;57712;48.752;11.348;2023-08-17T04:59:54;10.32;;;7.72;;
70303;SDS011;57712;48.752;11.348;2023-08-17T05:02:21;11.75;;;7.95;;
70303;SDS011;57712;48.752;11.348;2023-08-17T05:04:47;11.57;;;7.70;;
70303;SDS011;57712;48.752;11.348;2023-08-17T05:07:14;11.65;;;7.68;;
70303;SDS011;57712;48.752;11.348;2023-08-17T05:09:41;10.52;;;7.50;;
70303;SDS011;57712;48.752;11.348;2023-08-17T05:12:07;11.70;;;7.78;;
70303;SDS011;57712;48.752;11.348;2023-08-17T05:14:34;10.55;;;7.97;;
70303;SDS011;57712;48.752;11.348;2023-08-17T05:17:01;11.00;;;7.50;;
70303;SDS011;57712;48.752;11.348;2023-08-17T05:19:28;11.35;;;7.47;;
70303;SDS011;57712;48.752;11.348;2023-08-17T05:21:54;10.45;;;8.45;;
70303;SDS011;57712;48.752;11.348;2023-08-17T05:24:21;12.07;;;8.13;;
70303;SDS011;57712;48.752;11.348;2023-08-17T05:26:47;10.18;;;7.97;;
70303;SDS011;57712;48.752;11.348;2023-08-17T05:29:14;12.53;;;8.43;;
70303;SDS011;57712;48.752;11.348;2023-08-17T05:31:41;12.18;;;8.50;;
70303;SDS011;57712;48.752;11.348;2023-08-17T05:34:07;11.05;;;8.45;;
70303;SDS011;57712;48.752;11.348;2023-08-17T05:36:34;12.35;;;8.57;;
70303;SDS011;57712;48.752;11.348;2023-08-17T05:39:00;11.23;;;8.98;;
70303;SDS011;57712;48.752;11.348;2023-08-17T05:41:31;11.23;;;8.63;;
70303;SDS011;57712;48.752;11.348;2023-08-17T05:43:57;10.88;;;8.20;;
70303;SDS011;57712;48.752;11.348;2023-08-17T05:46:24;13.07;;;9.15;;
70303;SDS011;57712;48.752;11.348;2023-08-17T05:48:51;11.50;;;7.97;;
70303;SDS011;57712;48.752;11.348;2023-08-17T05:51:17;11.13;;;8.30;;
70303;SDS011;57712;48.752;11.348;2023-08-17T05:53:46;12.27;;;8.60;;
70303;SDS011;57712;48.752;11.348;2023-08-17T05:56:12;11.93;;;8.77;;
70303;SDS011;57712;48.752;11.348;2023-08-17T05:58:43;13.45;;;8.98;;
70303;SDS011;57712;48.752;11.348;2023-08-17T06:01:10;12.18;;;9.10;;
70303;SDS011;57712;48.752;11.348;2023-08-17T06:03:37;11.20;;;8.52;;
70303;SDS011;57712;48.752;11.348;2023-08-17T06:06:04;11.13;;;8.10;;
70303;SDS011;57712;48.752;11.348;2023-08-17T06:08:34;10.93;;;8.50;;
70303;SDS011;57712;48.752;11.348;2023-08-17T06:11:01;11.27;;;8.60;;
70303;SDS011;57712;48.752;11.348;2023-08-17T06:13:28;11.55;;;8.95;;
70303;SDS011;57712;48.752;11.348;2023-08-17T06:15:55;11.20;;;8.38;;
70303;SDS011;57712;48.752;11.348;2023-08-17T06:18:24;11.03;;;8.47;;
70303;SDS011;57712;48.752;11.348;2023-08-17T06:20:51;11.60;;;9.25;;
70303;SDS011;57712;48.752;11.348;2023-08-17T06:23:20;11.52;;;9.20;;
70303;SDS011;57712;48.752;11.348;2023-08-17T06:25:47;13.05;;;9.43;;
70303;SDS011;57712;48.752;11.348;2023-08-17T06:28:13;11.38;;;9.00;;
70303;SDS011;57712;48.752;11.348;2023-08-17T06:30:40;12.77;;;9.37;;
70303;SDS011;57712;48.752;11.348;2023-08-17T06:33:07;12.55;;;9.27;;
70303;SDS011;57712;48.752;11.348;2023-08-17T06:35:33;11.20;;;8.70;;
70303;SDS011;57712;48.752;11.348;2023-08-17T06:38:00;11.85;;;9.45;;
70303;SDS011;57712;48.752;11.348;2023-08-17T06:40:27;11.95;;;8.85;;
70303;SDS011;57712;48.752;11.348;2023-08-17T06:42:54;11.57;;;9.30;;
70303;SDS011;57712;48.752;11.348;2023-08-17T06:45:21;13.98;;;9.50;;
70303;SDS011;57712;48.752;11.348;2023-08-17T06:47:49;14.98;;;9.85;;
70303;SDS011;57712;48.752;11.348;2023-08-17T06:50:16;12.63;;;9.73;;
70303;SDS011;57712;48.752;11.348;2023-08-17T06:52:42;13.73;;;9.80;;
70303;SDS011;57712;48.752;11.348;2023-08-17T06:55:09;13.77;;;9.87;;
70303;SDS011;57712;48.752;11.348;2023-08-17T06:57:37;14.13;;;9.73;;
70303;SDS011;57712;48.752;11.348;2023-08-17T07:00:04;14.63;;;9.95;;
70303;SDS011;57712;48.752;11.348;2023-08-17T07:02:34;14.18;;;10.75;;
70303;SDS011;57712;48.752;11.348;2023-08-17T07:05:16;12.50;;;9.75;;
70303;SDS011;57712;48.752;11.348;2023-08-17T07:07:43;14.30;;;10.13;;
70303;SDS011;57712;48.752;11.348;2023-08-17T07:10:10;16.25;;;10.18;;
70303;SDS011;57712;48.752;11.348;2023-08-17T07:12:58;14.75;;;10.73;;
70303;SDS011;57712;48.752;11.348;2023-08-17T07:21:03;13.37;;;10.43;;
70303;SDS011;57712;48.752;11.348;2023-08-17T07:23:29;13.32;;;10.48;;
70303;SDS011;57712;48.752;11.348;2023-08-17T07:25:56;13.25;;;10.50;;
70303;SDS011;57712;48.752;11.348;2023-08-17T07:28:23;13.15;;;10.48;;
70303;SDS011;57712;48.752;11.348;2023-08-17T07:30:49;16.10;;;12.20;;
70303;SDS011;57712;48.752;11.348;2023-08-17T07:33:16;12.53;;;9.57;;
70303;SDS011;57712;48.752;11.348;2023-08-17T07:35:42;11.90;;;10.45;;
70303;SDS011;57712;48.752;11.348;2023-08-17T07:38:09;15.63;;;11.57;;
70303;SDS011;57712;48.752;11.348;2023-08-17T07:40:58;12.95;;;10.27;;
70303;SDS011;57712;48.752;11.348;2023-08-17T07:43:27;13.75;;;10.90;;
70303;SDS011;57712;48.752;11.348;2023-08-17T07:45:54;15.77;;;11.77;;
70303;SDS011;57712;48.752;11.348;2023-08-17T07:48:25;12.95;;;10.82;;
70303;SDS011;57712;48.752;11.348;2023-08-17T07:50:52;13.95;;;10.57;;
70303;SDS011;57712;48.752;11.348;2023-08-17T07:53:20;15.10;;;10.02;;
70303;SDS011;57712;48.752;11.348;2023-08-17T07:55:46;13.02;;;9.52;;
70303;SDS011;57712;48.752;11.348;2023-08-17T08:00:52;11.63;;;9.88;;
70303;SDS011;57712;48.752;11.348;2023-08-17T08:03:19;15.07;;;10.48;;
70303;SDS011;57712;48.752;11.348;2023-08-17T08:05:46;13.77;;;10.45;;
70303;SDS011;57712;48.752;11.348;2023-08-17T08:08:46;14.77;;;10.90;;
70303;SDS011;57712;48.752;11.348;2023-08-17T08:11:13;13.03;;;10.37;;
70303;SDS011;57712;48.752;11.348;2023-08-17T08:13:39;12.55;;;10.65;;
70303;SDS011;57712;48.752;11.348;2023-08-17T08:16:27;13.23;;;10.60;;
70303;SDS011;57712;48.752;11.348;2023-08-17T08:18:57;12.88;;;9.35;;
70303;SDS011;57712;48.752;11.348;2023-08-17T08:21:25;13.70;;;9.45;;
70303;SDS011;57712;48.752;11.348;2023-08-17T08:23:53;12.77;;;9.63;;
70303;SDS011;57712;48.752;11.348;2023-08-17T08:26:20;14.35;;;9.88;;
70303;SDS011;57712;48.752;11.348;2023-08-17T08:28:47;13.77;;;10.02;;
70303;SDS011;57712;48.752;11.348;2023-08-17T08:31:13;15.30;;;10.57;;
70303;SDS011;57712;48.752;11.348;2023-08-17T08:33:43;12.25;;;10.13;;
70303;SDS011;57712;48.752;11.348;2023-08-17T08:36:10;11.90;;;9.83;;
70303;SDS011;57712;48.752;11.348;2023-08-17T08:38:42;12.43;;;9.43;;
70303;SDS011;57712;48.752;11.348;2023-08-17T08:41:11;12.05;;;9.82;;
70303;SDS011;57712;48.752;11.348;2023-08-17T08:43:40;11.90;;;9.30;;
70303;SDS011;57712;48.752;11.348;2023-08-17T08:46:07;11.02;;;9.57;;
70303;SDS011;57712;48.752;11.348;2023-08-17T08:48:38;11.37;;;9.33;;
70303;SDS011;57712;48.752;11.348;2023-08-17T08:51:07;11.63;;;10.23;;
70303;SDS011;57712;48.752;11.348;2023-08-17T08:53:38;12.40;;;9.75;;
70303;SDS011;57712;48.752;11.348;2023-08-17T08:56:15;13.50;;;10.32;;
70303;SDS011;57712;48.752;11.348;2023-08-17T08:58:50;11.18;;;9.77;;
70303;SDS011;57712;48.752;11.348;2023-08-17T09:01:41;12.07;;;10.00;;
70303;SDS011;57712;48.752;11.348;2023-08-17T09:04:10;12.38;;;9.38;;
70303;SDS011;57712;48.752;11.348;2023-08-17T09:06:39;11.68;;;10.48;;
70303;SDS011;57712;48.752;11.348;2023-08-17T09:09:08;11.63;;;9.75;;
70303;SDS011;57712;48.752;11.348;2023-08-17T09:11:39;11.88;;;9.80;;
70303;SDS011;57712;48.752;11.348;2023-08-17T09:14:10;11.53;;;9.50;;
70303;SDS011;57712;48.752;11.348;2023-08-17T09:16:49;14.55;;;9.85;;
70303;SDS011;57712;48.752;11.348;2023-08-17T09:19:22;12.82;;;10.15;;
70303;SDS011;57712;48.752;11.348;2023-08-17T09:21:49;11.55;;;9.23;;
70303;SDS011;57712;48.752;11.348;2023-08-17T09:24:17;13.50;;;10.43;;
70303;SDS011;57712;48.752;11.348;2023-08-17T09:26:53;15.50;;;9.83;;
70303;SDS011;57712;48.752;11.348;2023-08-17T09:29:24;10.75;;;9.07;;
70303;SDS011;57712;48.752;11.348;2023-08-17T09:31:52;11.55;;;9.82;;
70303;SDS011;57712;48.752;11.348;2023-08-17T09:34:21;12.07;;;9.52;;
70303;SDS011;57712;48.752;11.348;2023-08-17T09:36:55;11.07;;;9.30;;
70303;SDS011;57712;48.752;11.348;2023-08-17T09:39:21;10.60;;;8.87;;
70303;SDS011;57712;48.752;11.348;2023-08-17T09:44:46;11.35;;;9.52;;
70303;SDS011;57712;48.752;11.348;2023-08-17T09:47:29;11.52;;;9.20;;
70303;SDS011;57712;48.752;11.348;2023-08-17T09:50:25;10.65;;;9.15;;
70303;SDS011;57712;48.752;11.348;2023-08-17T09:52:53;11.80;;;8.60;;
70303;SDS011;57712;48.752;11.348;2023-08-17T09:55:34;10.93;;;9.82;;
70303;SDS011;57712;48.752;11.348;2023-08-17T09:58:03;11.80;;;9.95;;
70303;SDS011;57712;48.752;11.348;2023-08-17T10:00:30;11.48;;;9.65;;
70303;SDS011;57712;48.752;11.348;2023-08-17T10:02:57;10.70;;;9.10;;
70303;SDS011;57712;48.752;11.348;2023-08-17T10:05:35;10.50;;;9.30;;
70303;SDS011;57712;48.752;11.348;2023-08-17T10:08:04;11.40;;;9.63;;
70303;SDS011;57712;48.752;11.348;2023-08-17T10:10:34;10.55;;;9.32;;
70303;SDS011;57712;48.752;11.348;2023-08-17T10:13:09;11.18;;;9.55;;
70303;SDS011;57712;48.752;11.348;2023-08-17T10:15:43;9.90;;;8.77;;
70303;SDS011;57712;48.752;11.348;2023-08-17T10:18:45;11.13;;;8.50;;
70303;SDS011;57712;48.752;11.348;2023-08-17T10:21:54;12.00;;;9.27;;
70303;SDS011;57712;48.752;11.348;2023-08-17T10:24:28;11.13;;;9.10;;
70303;SDS011;57712;48.752;11.348;2023-08-17T10:26:57;10.52;;;9.27;;
70303;SDS011;57712;48.752;11.348;2023-08-17T10:29:24;9.63;;;8.63;;
70303;SDS011;57712;48.752;11.348;2023-08-17T10:31:57;11.17;;;8.67;;
70303;SDS011;57712;48.752;11.348;2023-08-17T10:34:27;9.35;;;8.35;;
70303;SDS011;57712;48.752;11.348;2023-08-17T10:37:04;10.40;;;9.30;;
70303;SDS011;57712;48.752;11.348;2023-08-17T10:39:45;10.38;;;8.73;;
70303;SDS011;57712;48.752;11.348;2023-08-17T10:42:13;10.07;;;8.73;;
70303;SDS011;57712;48.752;11.348;2023-08-17T10:50:58;10.60;;;9.18;;
70303;SDS011;57712;48.752;11.348;2023-08-17T10:53:42;9.88;;;8.88;;
70303;SDS011;57712;48.752;11.348;2023-08-17T10:56:13;10.25;;;9.00;;
70303;SDS011;57712;48.752;11.348;2023-08-17T10:59:34;9.83;;;8.83;;
70303;SDS011;57712;48.752;11.348;2023-08-17T11:02:01;10.90;;;8.90;;
70303;SDS011;57712;48.752;11.348;2023-08-17T11:04:32;10.18;;;8.23;;
70303;SDS011;57712;48.752;11.348;2023-08-17T11:07:04;9.88;;;8.88;;
70303;SDS011;57712;48.752;11.348;2023-08-17T11:13:23;11.13;;;8.50;;
70303;SDS011;57712;48.752;11.348;2023-08-17T11:15:53;9.50;;;8.32;;
70303;SDS011;57712;48.752;11.348;2023-08-17T11:18:20;8.63;;;7.60;;
70303;SDS011;57712;48.752;11.348;2023-08-17T11:20:48;8.75;;;7.85;;
70303;SDS011;57712;48.752;11.348;2023-08-17T11:23:16;10.30;;;8.20;;
70303;SDS011;57712;48.752;11.348;2023-08-17T11:25:59;9.13;;;8.23;;
70303;SDS011;57712;48.752;11.348;2023-08-17T11:28:34;11.90;;;8.45;;
70303;SDS011;57712;48.752;11.348;2023-08-17T11:31:09;10.50;;;9.10;;
70303;SDS011;57712;48.752;11.348;2023-08-17T11:33:38;11.75;;;8.90;;
70303;SDS011;57712;48.752;11.348;2023-08-17T11:36:06;8.85;;;7.60;;
70303;SDS011;57712;48.752;11.348;2023-08-17T11:38:38;9.57;;;7.97;;
70303;SDS011;57712;48.752;11.348;2023-08-17T11:41:06;9.05;;;7.75;;
70303;SDS011;57712;48.752;11.348;2023-08-17T11:43:43;9.73;;;8.57;;
70303;SDS011;57712;48.752;11.348;2023-08-17T11:46:11;8.63;;;7.30;;
70303;SDS011;57712;48.752;11.348;2023-08-17T11:48:42;8.63;;;7.60;;
70303;SDS011;57712;48.752;11.348;2023-08-17T11:51:09;10.17;;;8.10;;
70303;SDS011;57712;48.752;11.348;2023-08-17T11:53:36;9.13;;;7.68;;
70303;SDS011;57712;48.752;11.348;2023-08-17T11:56:39;9.40;;;8.13;;
70303;SDS011;57712;48.752;11.348;2023-08-17T11:59:08;9.80;;;7.55;;
70303;SDS011;57712;48.752;11.348;2023-08-17T12:01:37;9.88;;;7.85;;
70303;SDS011;57712;48.752;11.348;2023-08-17T12:04:08;9.07;;;7.67;;
70303;SDS011;57712;48.752;11.348;2023-08-17T12:06:44;10.55;;;7.65;;
70303;SDS011;57712;48.752;11.348;2023-08-17T12:09:13;10.15;;;7.57;;
70303;SDS011;57712;48.752;11.348;2023-08-17T12:11:40;8.40;;;7.50;;
70303;SDS011;57712;48.752;11.348;2023-08-17T12:14:15;9.07;;;7.40;;
70303;SDS011;57712;48.752;11.348;2023-08-17T12:16:47;8.70;;;7.50;;
70303;SDS011;57712;48.752;11.348;2023-08-17T12:19:15;10.18;;;7.40;;
70303;SDS011;57712;48.752;11.348;2023-08-17T12:21:41;9.68;;;7.72;;
70303;SDS011;57712;48.752;11.348;2023-08-17T12:24:09;8.35;;;7.38;;
70303;SDS011;57712;48.752;11.348;2023-08-17T12:26:40;9.52;;;7.20;;
70303;SDS011;57712;48.752;11.348;2023-08-17T12:29:09;7.53;;;6.73;;
70303;SDS011;57712;48.752;11.348;2023-08-17T12:31:36;8.05;;;7.03;;
70303;SDS011;57712;48.752;11.348;2023-08-17T12:34:02;9.07;;;8.27;;
70303;SDS011;57712;48.752;11.348;2023-08-17T12:36:34;9.07;;;7.05;;
70303;SDS011;57712;48.752;11.348;2023-08-17T12:39:04;8.02;;;7.13;;
70303;SDS011;57712;48.752;11.348;2023-08-17T12:41:32;9.43;;;7.47;;
70303;SDS011;57712;48.752;11.348;2023-08-17T12:43:59;9.05;;;7.82;;
70303;SDS011;57712;48.752;11.348;2023-08-17T12:46:25;8.85;;;7.95;;
70303;SDS011;57712;48.752;11.348;2023-08-17T12:48:58;7.85;;;6.75;;
70303;SDS011;57712;48.752;11.348;2023-08-17T12:51:25;8.73;;;7.53;;
70303;SDS011;57712;48.752;11.348;2023-08-17T12:53:52;9.70;;;7.23;;
70303;SDS011;57712;48.752;11.348;2023-08-17T12:56:18;8.43;;;7.60;;
70303;SDS011;57712;48.752;11.348;2023-08-17T12:58:45;9.18;;;7.40;;
70303;SDS011;57712;48.752;11.348;2023-08-17T13:01:12;8.93;;;7.68;;
70303;SDS011;57712;48.752;11.348;2023-08-17T13:03:40;8.35;;;7.45;;
70303;SDS011;57712;48.752;11.348;2023-08-17T13:06:07;8.57;;;7.50;;
70303;SDS011;57712;48.752;11.348;2023-08-17T13:08:34;8.82;;;7.35;;
70303;SDS011;57712;48.752;11.348;2023-08-17T13:11:00;9.27;;;7.40;;
70303;SDS011;57712;48.752;11.348;2023-08-17T13:13:27;8.15;;;7.20;;
70303;SDS011;57712;48.752;11.348;2023-08-17T13:15:54;9.85;;;7.85;;
70303;SDS011;57712;48.752;11.348;2023-08-17T13:18:20;8.73;;;7.73;;
70303;SDS011;57712;48.752;11.348;2023-08-17T13:20:47;8.27;;;6.63;;
70303;SDS011;57712;48.752;11.348;2023-08-17T13:23:14;7.47;;;6.72;;
70303;SDS011;57712;48.752;11.348;2023-08-17T13:25:41;8.05;;;7.07;;
70303;SDS011;57712;48.752;11.348;2023-08-17T13:28:07;7.90;;;6.82;;
70303;SDS011;57712;48.752;11.348;2023-08-17T13:30:34;8.37;;;7.17;;
70303;SDS011;57712;48.752;11.348;2023-08-17T13:33:01;8.77;;;7.35;;
70303;SDS011;57712;48.752;11.348;2023-08-17T13:35:27;7.80;;;6.45;;
70303;SDS011;57712;48.752;11.348;2023-08-17T13:37:54;8.35;;;6.80;;
70303;SDS011;57712;48.752;11.348;2023-08-17T13:40:21;8.13;;;6.93;;
70303;SDS011;57712;48.752;11.348;2023-08-17T13:42:48;7.63;;;6.83;;
70303;SDS011;57712;48.752;11.348;2023-08-17T13:45:14;7.72;;;6.70;;
70303;SDS011;57712;48.752;11.348;2023-08-17T13:47:41;9.63;;;7.47;;
70303;SDS011;57712;48.752;11.348;2023-08-17T13:50:08;8.35;;;6.88;;
70303;SDS011;57712;48.752;11.348;2023-08-17T13:52:35;9.02;;;6.95;;
70303;SDS011;57712;48.752;11.348;2023-08-17T13:55:01;7.10;;;6.40;;
70303;SDS011;57712;48.752;11.348;2023-08-17T13:57:28;7.90;;;7.10;;
70303;SDS011;57712;48.752;11.348;2023-08-17T13:59:55;7.90;;;7.00;;
70303;SDS011;57712;48.752;11.348;2023-08-17T14:02:24;9.80;;;7.15;;
70303;SDS011;57712;48.752;11.348;2023-08-17T14:04:54;8.57;;;6.63;;
70303;SDS011;57712;48.752;11.348;2023-08-17T14:07:20;6.90;;;6.20;;
70303;SDS011;57712;48.752;11.348;2023-08-17T14:09:48;8.95;;;7.05;;
70303;SDS011;57712;48.752;11.348;2023-08-17T14:12:32;9.05;;;6.40;;
70303;SDS011;57712;48.752;11.348;2023-08-17T14:15:00;8.98;;;7.10;;
70303;SDS011;57712;48.752;11.348;2023-08-17T14:17:26;12.60;;;6.63;;
70303;SDS011;57712;48.752;11.348;2023-08-17T14:19:53;7.73;;;5.63;;
70303;SDS011;57712;48.752;11.348;2023-08-17T14:22:21;8.27;;;6.30;;
70303;SDS011;57712;48.752;11.348;2023-08-17T14:24:48;7.30;;;6.03;;
70303;SDS011;57712;48.752;11.348;2023-08-17T14:27:14;8.05;;;6.32;;
70303;SDS011;57712;48.752;11.348;2023-08-17T14:29:41;9.93;;;6.60;;
70303;SDS011;57712;48.752;11.348;2023-08-17T14:32:13;7.97;;;5.47;;
70303;SDS011;57712;48.752;11.348;2023-08-17T14:34:40;9.82;;;7.15;;
70303;SDS011;57712;48.752;11.348;2023-08-17T14:37:07;8.30;;;6.43;;
70303;SDS011;57712;48.752;11.348;2023-08-17T14:39:33;8.10;;;5.70;;
70303;SDS011;57712;48.752;11.348;2023-08-17T14:42:03;8.63;;;6.45;;
70303;SDS011;57712;48.752;11.348;2023-08-17T14:44:31;8.47;;;6.43;;
70303;SDS011;57712;48.752;11.348;2023-08-17T14:46:58;7.85;;;6.35;;
70303;SDS011;57712;48.752;11.348;2023-08-17T14:49:25;12.13;;;7.32;;
70303;SDS011;57712;48.752;11.348;2023-08-17T14:51:52;7.72;;;6.60;;
70303;SDS011;57712;48.752;11.348;2023-08-17T14:54:19;9.35;;;7.60;;
70303;SDS011;57712;48.752;11.348;2023-08-17T14:56:45;8.73;;;6.87;;
70303;SDS011;57712;48.752;11.348;2023-08-17T14:59:12;8.35;;;7.32;;
70303;SDS011;57712;48.752;11.348;2023-08-17T15:01:39;9.60;;;7.07;;